Warner, Illinois
Current Conditions -  °F | °C
As of 9:52 AM on Monday 22 Dec 2014 (Local Time) from KMLI Reporting Station
Haze Haze  
Wind Chill: 28°   Ceiling: 4600
Heat Index: 37°   Visibility: 5mi
Dew Point: 31°   Wind: 16mph
Humidity: 79%   Direction: 110°ESE
Pressure: 29.75"   Gusts: NA
Location:  41.3669°N, 90.3966°W
Report Text: KMLI 221552Z 11014KT 5SM BR OVC046 03/M01 A2975 RMK AO2 UPB44E50 SLP079 P0000 T00281006
Loading
Personal Weather Stations






























Interactive Weather Map New forecast layout! Learn more

10-Day Weather Forecast

Advertisements
Track Severe Weather on mobile